sensor_id;sensor_type;location;lat;lon;timestamp;P1;durP1;ratioP1;P2;durP2;ratioP2
45970;SDS011;31681;48.982;8.394;2023-10-13T00:01:59;11.15;;;7.65;;
45970;SDS011;31681;48.982;8.394;2023-10-13T00:04:24;11.43;;;7.47;;
45970;SDS011;31681;48.982;8.394;2023-10-13T00:06:53;10.88;;;6.90;;
45970;SDS011;31681;48.982;8.394;2023-10-13T00:09:19;14.52;;;8.27;;
45970;SDS011;31681;48.982;8.394;2023-10-13T00:11:50;11.30;;;7.97;;
45970;SDS011;31681;48.982;8.394;2023-10-13T00:14:20;12.02;;;7.15;;
45970;SDS011;31681;48.982;8.394;2023-10-13T00:16:55;13.93;;;7.28;;
45970;SDS011;31681;48.982;8.394;2023-10-13T00:19:31;15.20;;;7.85;;
45970;SDS011;31681;48.982;8.394;2023-10-13T00:22:12;14.20;;;7.13;;
45970;SDS011;31681;48.982;8.394;2023-10-13T00:24:38;12.52;;;7.45;;
45970;SDS011;31681;48.982;8.394;2023-10-13T00:27:16;13.15;;;7.30;;
45970;SDS011;31681;48.982;8.394;2023-10-13T00:30:02;14.05;;;7.13;;
45970;SDS011;31681;48.982;8.394;2023-10-13T00:32:47;11.65;;;7.15;;
45970;SDS011;31681;48.982;8.394;2023-10-13T00:35:17;15.48;;;7.43;;
45970;SDS011;31681;48.982;8.394;2023-10-13T00:38:03;9.75;;;6.47;;
45970;SDS011;31681;48.982;8.394;2023-10-13T00:40:42;10.73;;;6.55;;
45970;SDS011;31681;48.982;8.394;2023-10-13T00:43:09;17.73;;;6.95;;
45970;SDS011;31681;48.982;8.394;2023-10-13T00:45:44;18.42;;;6.43;;
45970;SDS011;31681;48.982;8.394;2023-10-13T00:48:13;13.43;;;5.93;;
45970;SDS011;31681;48.982;8.394;2023-10-13T00:50:40;11.13;;;6.38;;
45970;SDS011;31681;48.982;8.394;2023-10-13T00:53:06;11.70;;;6.30;;
45970;SDS011;31681;48.982;8.394;2023-10-13T00:55:32;11.68;;;6.47;;
45970;SDS011;31681;48.982;8.394;2023-10-13T00:58:02;11.93;;;5.25;;
45970;SDS011;31681;48.982;8.394;2023-10-13T01:00:29;8.57;;;5.60;;
45970;SDS011;31681;48.982;8.394;2023-10-13T01:02:55;8.95;;;5.60;;
45970;SDS011;31681;48.982;8.394;2023-10-13T01:05:31;9.85;;;5.70;;
45970;SDS011;31681;48.982;8.394;2023-10-13T01:08:00;11.13;;;5.93;;
45970;SDS011;31681;48.982;8.394;2023-10-13T01:10:26;13.00;;;6.15;;
45970;SDS011;31681;48.982;8.394;2023-10-13T01:12:52;10.13;;;5.55;;
45970;SDS011;31681;48.982;8.394;2023-10-13T01:15:19;9.85;;;5.80;;
45970;SDS011;31681;48.982;8.394;2023-10-13T01:17:48;10.23;;;6.13;;
45970;SDS011;31681;48.982;8.394;2023-10-13T01:20:14;12.27;;;6.25;;
45970;SDS011;31681;48.982;8.394;2023-10-13T01:22:50;11.60;;;6.85;;
45970;SDS011;31681;48.982;8.394;2023-10-13T01:25:24;8.48;;;5.80;;
45970;SDS011;31681;48.982;8.394;2023-10-13T01:27:53;10.35;;;6.03;;
45970;SDS011;31681;48.982;8.394;2023-10-13T01:30:19;8.90;;;5.05;;
45970;SDS011;31681;48.982;8.394;2023-10-13T01:32:51;11.25;;;5.70;;
45970;SDS011;31681;48.982;8.394;2023-10-13T01:35:18;10.65;;;5.95;;
45970;SDS011;31681;48.982;8.394;2023-10-13T01:37:47;8.95;;;5.45;;
45970;SDS011;31681;48.982;8.394;2023-10-13T01:40:12;14.23;;;5.93;;
45970;SDS011;31681;48.982;8.394;2023-10-13T01:42:42;11.75;;;5.43;;
45970;SDS011;31681;48.982;8.394;2023-10-13T01:45:10;16.75;;;6.57;;
45970;SDS011;31681;48.982;8.394;2023-10-13T01:47:39;9.43;;;6.00;;
45970;SDS011;31681;48.982;8.394;2023-10-13T01:50:05;13.55;;;6.03;;
45970;SDS011;31681;48.982;8.394;2023-10-13T01:52:40;13.00;;;6.47;;
45970;SDS011;31681;48.982;8.394;2023-10-13T01:55:07;11.68;;;5.95;;
45970;SDS011;31681;48.982;8.394;2023-10-13T01:57:32;11.52;;;5.63;;
45970;SDS011;31681;48.982;8.394;2023-10-13T01:59:57;10.95;;;6.22;;
45970;SDS011;31681;48.982;8.394;2023-10-13T02:02:37;10.65;;;5.85;;
45970;SDS011;31681;48.982;8.394;2023-10-13T02:05:10;8.77;;;5.47;;
45970;SDS011;31681;48.982;8.394;2023-10-13T02:07:35;10.68;;;5.97;;
45970;SDS011;31681;48.982;8.394;2023-10-13T02:10:04;13.38;;;5.85;;
45970;SDS011;31681;48.982;8.394;2023-10-13T02:12:32;9.40;;;4.90;;
45970;SDS011;31681;48.982;8.394;2023-10-13T02:15:10;12.05;;;5.30;;
45970;SDS011;31681;48.982;8.394;2023-10-13T02:17:45;11.00;;;5.47;;
45970;SDS011;31681;48.982;8.394;2023-10-13T02:20:16;9.57;;;5.25;;
45970;SDS011;31681;48.982;8.394;2023-10-13T02:22:41;7.32;;;5.50;;
45970;SDS011;31681;48.982;8.394;2023-10-13T02:25:16;9.75;;;5.45;;
45970;SDS011;31681;48.982;8.394;2023-10-13T02:27:59;10.45;;;5.40;;
45970;SDS011;31681;48.982;8.394;2023-10-13T02:30:25;14.27;;;5.70;;
45970;SDS011;31681;48.982;8.394;2023-10-13T02:32:53;14.20;;;5.53;;
45970;SDS011;31681;48.982;8.394;2023-10-13T02:35:21;10.10;;;5.25;;
45970;SDS011;31681;48.982;8.394;2023-10-13T02:37:55;9.38;;;6.25;;
45970;SDS011;31681;48.982;8.394;2023-10-13T02:40:23;6.28;;;5.25;;
45970;SDS011;31681;48.982;8.394;2023-10-13T02:42:49;13.02;;;5.28;;
45970;SDS011;31681;48.982;8.394;2023-10-13T02:45:14;10.68;;;6.05;;
45970;SDS011;31681;48.982;8.394;2023-10-13T02:47:40;9.73;;;5.75;;
45970;SDS011;31681;48.982;8.394;2023-10-13T02:50:09;8.93;;;6.05;;
45970;SDS011;31681;48.982;8.394;2023-10-13T02:52:38;12.40;;;5.80;;
45970;SDS011;31681;48.982;8.394;2023-10-13T02:55:06;11.82;;;5.45;;
45970;SDS011;31681;48.982;8.394;2023-10-13T02:57:35;8.18;;;5.55;;
45970;SDS011;31681;48.982;8.394;2023-10-13T03:00:00;11.52;;;6.00;;
45970;SDS011;31681;48.982;8.394;2023-10-13T03:02:37;11.55;;;5.60;;
45970;SDS011;31681;48.982;8.394;2023-10-13T03:05:09;9.85;;;6.18;;
45970;SDS011;31681;48.982;8.394;2023-10-13T03:07:34;11.23;;;5.90;;
45970;SDS011;31681;48.982;8.394;2023-10-13T03:10:03;11.70;;;6.22;;
45970;SDS011;31681;48.982;8.394;2023-10-13T03:12:40;13.20;;;6.38;;
45970;SDS011;31681;48.982;8.394;2023-10-13T03:15:05;8.82;;;6.35;;
45970;SDS011;31681;48.982;8.394;2023-10-13T03:17:38;11.73;;;6.25;;
45970;SDS011;31681;48.982;8.394;2023-10-13T03:20:09;13.95;;;6.57;;
45970;SDS011;31681;48.982;8.394;2023-10-13T03:22:37;14.38;;;6.30;;
45970;SDS011;31681;48.982;8.394;2023-10-13T03:25:02;14.80;;;6.35;;
45970;SDS011;31681;48.982;8.394;2023-10-13T03:27:38;11.63;;;5.90;;
45970;SDS011;31681;48.982;8.394;2023-10-13T03:30:26;12.45;;;6.32;;
45970;SDS011;31681;48.982;8.394;2023-10-13T03:33:04;9.93;;;6.00;;
45970;SDS011;31681;48.982;8.394;2023-10-13T03:35:35;9.93;;;5.88;;
45970;SDS011;31681;48.982;8.394;2023-10-13T03:38:05;11.05;;;5.97;;
45970;SDS011;31681;48.982;8.394;2023-10-13T03:40:43;9.35;;;5.68;;
45970;SDS011;31681;48.982;8.394;2023-10-13T03:43:13;10.07;;;5.57;;
45970;SDS011;31681;48.982;8.394;2023-10-13T03:45:39;8.30;;;6.07;;
45970;SDS011;31681;48.982;8.394;2023-10-13T03:48:06;11.40;;;5.90;;
45970;SDS011;31681;48.982;8.394;2023-10-13T03:50:37;11.35;;;5.75;;
45970;SDS011;31681;48.982;8.394;2023-10-13T03:53:02;12.05;;;5.63;;
45970;SDS011;31681;48.982;8.394;2023-10-13T03:55:31;11.50;;;6.22;;
45970;SDS011;31681;48.982;8.394;2023-10-13T03:57:59;6.63;;;5.35;;
45970;SDS011;31681;48.982;8.394;2023-10-13T04:00:25;12.57;;;5.80;;
45970;SDS011;31681;48.982;8.394;2023-10-13T04:02:52;12.85;;;6.28;;
45970;SDS011;31681;48.982;8.394;2023-10-13T04:05:41;8.93;;;5.70;;
45970;SDS011;31681;48.982;8.394;2023-10-13T04:08:11;10.38;;;5.90;;
45970;SDS011;31681;48.982;8.394;2023-10-13T04:10:56;8.15;;;5.75;;
45970;SDS011;31681;48.982;8.394;2023-10-13T04:13:21;10.38;;;5.35;;
45970;SDS011;31681;48.982;8.394;2023-10-13T04:16:06;11.82;;;6.60;;
45970;SDS011;31681;48.982;8.394;2023-10-13T04:18:49;9.02;;;5.75;;
45970;SDS011;31681;48.982;8.394;2023-10-13T04:21:24;12.73;;;6.20;;
45970;SDS011;31681;48.982;8.394;2023-10-13T04:26:42;11.32;;;6.72;;
45970;SDS011;31681;48.982;8.394;2023-10-13T04:29:28;14.77;;;6.32;;
45970;SDS011;31681;48.982;8.394;2023-10-13T04:32:11;9.40;;;5.95;;
45970;SDS011;31681;48.982;8.394;2023-10-13T04:34:39;9.00;;;6.15;;
45970;SDS011;31681;48.982;8.394;2023-10-13T04:37:10;12.50;;;6.60;;
45970;SDS011;31681;48.982;8.394;2023-10-13T04:40:00;10.77;;;6.32;;
45970;SDS011;31681;48.982;8.394;2023-10-13T04:42:34;7.97;;;5.95;;
45970;SDS011;31681;48.982;8.394;2023-10-13T04:45:20;10.75;;;6.55;;
45970;SDS011;31681;48.982;8.394;2023-10-13T04:47:58;10.60;;;6.38;;
45970;SDS011;31681;48.982;8.394;2023-10-13T04:50:39;9.55;;;6.22;;
45970;SDS011;31681;48.982;8.394;2023-10-13T04:53:11;11.10;;;6.05;;
45970;SDS011;31681;48.982;8.394;2023-10-13T04:55:53;15.05;;;6.80;;
45970;SDS011;31681;48.982;8.394;2023-10-13T04:58:33;12.52;;;7.13;;
45970;SDS011;31681;48.982;8.394;2023-10-13T05:01:02;15.50;;;7.03;;
45970;SDS011;31681;48.982;8.394;2023-10-13T05:03:46;10.45;;;6.32;;
45970;SDS011;31681;48.982;8.394;2023-10-13T05:06:17;10.73;;;6.60;;
45970;SDS011;31681;48.982;8.394;2023-10-13T05:09:01;12.05;;;6.30;;
45970;SDS011;31681;48.982;8.394;2023-10-13T05:11:45;9.77;;;6.45;;
45970;SDS011;31681;48.982;8.394;2023-10-13T05:14:29;11.25;;;6.88;;
45970;SDS011;31681;48.982;8.394;2023-10-13T05:17:13;9.43;;;6.47;;
45970;SDS011;31681;48.982;8.394;2023-10-13T05:19:57;10.85;;;6.13;;
45970;SDS011;31681;48.982;8.394;2023-10-13T05:22:41;11.30;;;6.93;;
45970;SDS011;31681;48.982;8.394;2023-10-13T05:25:25;12.55;;;7.18;;
45970;SDS011;31681;48.982;8.394;2023-10-13T05:28:09;11.25;;;6.60;;
45970;SDS011;31681;48.982;8.394;2023-10-13T05:30:53;10.27;;;6.50;;
45970;SDS011;31681;48.982;8.394;2023-10-13T05:33:37;13.40;;;6.45;;
45970;SDS011;31681;48.982;8.394;2023-10-13T05:36:21;9.65;;;5.93;;
45970;SDS011;31681;48.982;8.394;2023-10-13T05:39:05;13.30;;;6.80;;
45970;SDS011;31681;48.982;8.394;2023-10-13T05:41:49;10.80;;;6.65;;
45970;SDS011;31681;48.982;8.394;2023-10-13T05:44:33;10.55;;;6.28;;
45970;SDS011;31681;48.982;8.394;2023-10-13T05:47:02;10.13;;;6.13;;
45970;SDS011;31681;48.982;8.394;2023-10-13T05:49:46;12.10;;;6.57;;
45970;SDS011;31681;48.982;8.394;2023-10-13T05:52:15;12.20;;;6.75;;
45970;SDS011;31681;48.982;8.394;2023-10-13T05:54:45;14.70;;;6.90;;
45970;SDS011;31681;48.982;8.394;2023-10-13T05:57:28;11.50;;;6.72;;
45970;SDS011;31681;48.982;8.394;2023-10-13T06:00:13;13.25;;;6.72;;
45970;SDS011;31681;48.982;8.394;2023-10-13T06:02:57;12.90;;;6.53;;
45970;SDS011;31681;48.982;8.394;2023-10-13T06:05:41;12.52;;;6.95;;
45970;SDS011;31681;48.982;8.394;2023-10-13T06:08:25;10.60;;;6.57;;
45970;SDS011;31681;48.982;8.394;2023-10-13T06:11:09;11.75;;;6.82;;
45970;SDS011;31681;48.982;8.394;2023-10-13T06:13:53;11.10;;;6.93;;
45970;SDS011;31681;48.982;8.394;2023-10-13T06:16:37;15.40;;;7.05;;
45970;SDS011;31681;48.982;8.394;2023-10-13T06:19:21;16.40;;;7.00;;
45970;SDS011;31681;48.982;8.394;2023-10-13T06:22:05;12.13;;;6.85;;
45970;SDS011;31681;48.982;8.394;2023-10-13T06:24:49;15.85;;;6.72;;
45970;SDS011;31681;48.982;8.394;2023-10-13T06:27:33;13.07;;;6.93;;
45970;SDS011;31681;48.982;8.394;2023-10-13T06:30:17;12.32;;;6.78;;
45970;SDS011;31681;48.982;8.394;2023-10-13T06:32:44;14.77;;;7.00;;
45970;SDS011;31681;48.982;8.394;2023-10-13T06:35:11;15.77;;;7.28;;
45970;SDS011;31681;48.982;8.394;2023-10-13T06:37:49;10.15;;;6.43;;
45970;SDS011;31681;48.982;8.394;2023-10-13T06:40:14;13.55;;;7.25;;
45970;SDS011;31681;48.982;8.394;2023-10-13T06:43:00;11.60;;;7.35;;
45970;SDS011;31681;48.982;8.394;2023-10-13T06:45:39;15.25;;;6.65;;
45970;SDS011;31681;48.982;8.394;2023-10-13T06:48:05;15.27;;;6.72;;
45970;SDS011;31681;48.982;8.394;2023-10-13T06:50:30;10.75;;;6.55;;
45970;SDS011;31681;48.982;8.394;2023-10-13T06:53:04;15.38;;;7.35;;
45970;SDS011;31681;48.982;8.394;2023-10-13T06:55:29;9.75;;;6.75;;
45970;SDS011;31681;48.982;8.394;2023-10-13T06:58:00;17.35;;;7.28;;
45970;SDS011;31681;48.982;8.394;2023-10-13T07:00:26;12.10;;;7.10;;
45970;SDS011;31681;48.982;8.394;2023-10-13T07:02:55;10.75;;;6.32;;
45970;SDS011;31681;48.982;8.394;2023-10-13T07:05:34;11.75;;;6.22;;
45970;SDS011;31681;48.982;8.394;2023-10-13T07:08:00;15.43;;;6.80;;
45970;SDS011;31681;48.982;8.394;2023-10-13T07:10:26;9.63;;;6.43;;
45970;SDS011;31681;48.982;8.394;2023-10-13T07:12:55;12.77;;;7.18;;
45970;SDS011;31681;48.982;8.394;2023-10-13T07:15:25;11.82;;;6.53;;
45970;SDS011;31681;48.982;8.394;2023-10-13T07:17:52;12.00;;;6.90;;
45970;SDS011;31681;48.982;8.394;2023-10-13T07:20:27;12.07;;;6.35;;
45970;SDS011;31681;48.982;8.394;2023-10-13T07:22:52;12.00;;;6.13;;
45970;SDS011;31681;48.982;8.394;2023-10-13T07:25:31;11.70;;;6.90;;
45970;SDS011;31681;48.982;8.394;2023-10-13T07:28:05;13.80;;;6.80;;
45970;SDS011;31681;48.982;8.394;2023-10-13T07:30:34;12.07;;;6.47;;
45970;SDS011;31681;48.982;8.394;2023-10-13T07:33:15;16.73;;;6.53;;
45970;SDS011;31681;48.982;8.394;2023-10-13T07:35:40;12.50;;;6.72;;
45970;SDS011;31681;48.982;8.394;2023-10-13T07:38:06;10.70;;;6.05;;
45970;SDS011;31681;48.982;8.394;2023-10-13T07:40:33;13.35;;;6.28;;
45970;SDS011;31681;48.982;8.394;2023-10-13T07:42:58;12.15;;;6.53;;
45970;SDS011;31681;48.982;8.394;2023-10-13T07:45:29;13.55;;;6.47;;
45970;SDS011;31681;48.982;8.394;2023-10-13T07:48:07;12.93;;;6.32;;
45970;SDS011;31681;48.982;8.394;2023-10-13T07:50:42;10.45;;;6.32;;
45970;SDS011;31681;48.982;8.394;2023-10-13T07:53:07;13.40;;;6.32;;
45970;SDS011;31681;48.982;8.394;2023-10-13T07:55:48;14.70;;;6.28;;
45970;SDS011;31681;48.982;8.394;2023-10-13T07:58:14;13.80;;;6.22;;
45970;SDS011;31681;48.982;8.394;2023-10-13T08:00:39;14.65;;;6.47;;
45970;SDS011;31681;48.982;8.394;2023-10-13T08:03:11;10.75;;;5.20;;
45970;SDS011;31681;48.982;8.394;2023-10-13T08:05:51;13.90;;;5.18;;
45970;SDS011;31681;48.982;8.394;2023-10-13T08:08:26;12.85;;;5.68;;
45970;SDS011;31681;48.982;8.394;2023-10-13T08:11:00;15.52;;;5.82;;
45970;SDS011;31681;48.982;8.394;2023-10-13T08:13:34;14.02;;;5.90;;
45970;SDS011;31681;48.982;8.394;2023-10-13T08:16:01;9.48;;;4.80;;
45970;SDS011;31681;48.982;8.394;2023-10-13T08:18:33;11.77;;;4.68;;
45970;SDS011;31681;48.982;8.394;2023-10-13T08:21:01;11.20;;;4.72;;
45970;SDS011;31681;48.982;8.394;2023-10-13T08:23:29;10.52;;;4.32;;
45970;SDS011;31681;48.982;8.394;2023-10-13T08:26:13;8.13;;;4.20;;
45970;SDS011;31681;48.982;8.394;2023-10-13T08:28:54;8.90;;;3.97;;
45970;SDS011;31681;48.982;8.394;2023-10-13T08:31:19;7.70;;;4.07;;
45970;SDS011;31681;48.982;8.394;2023-10-13T08:33:49;7.75;;;3.97;;
45970;SDS011;31681;48.982;8.394;2023-10-13T08:36:15;7.50;;;4.07;;
45970;SDS011;31681;48.982;8.394;2023-10-13T08:38:52;7.85;;;4.10;;
45970;SDS011;31681;48.982;8.394;2023-10-13T08:41:20;14.05;;;4.05;;
45970;SDS011;31681;48.982;8.394;2023-10-13T08:43:45;7.70;;;4.00;;
45970;SDS011;31681;48.982;8.394;2023-10-13T08:46:15;9.32;;;4.10;;
45970;SDS011;31681;48.982;8.394;2023-10-13T08:48:55;11.63;;;4.25;;
45970;SDS011;31681;48.982;8.394;2023-10-13T08:51:30;7.20;;;3.80;;
45970;SDS011;31681;48.982;8.394;2023-10-13T08:54:08;13.43;;;4.03;;
45970;SDS011;31681;48.982;8.394;2023-10-13T08:56:43;8.75;;;3.72;;
45970;SDS011;31681;48.982;8.394;2023-10-13T08:59:13;8.50;;;3.83;;
45970;SDS011;31681;48.982;8.394;2023-10-13T09:01:47;9.25;;;3.60;;
45970;SDS011;31681;48.982;8.394;2023-10-13T09:04:25;9.60;;;4.05;;
45970;SDS011;31681;48.982;8.394;2023-10-13T09:06:57;7.88;;;4.15;;
45970;SDS011;31681;48.982;8.394;2023-10-13T09:12:11;6.55;;;3.60;;
45970;SDS011;31681;48.982;8.394;2023-10-13T09:14:37;10.50;;;4.60;;
45970;SDS011;31681;48.982;8.394;2023-10-13T09:17:10;8.27;;;3.70;;
45970;SDS011;31681;48.982;8.394;2023-10-13T09:19:48;12.15;;;4.45;;
45970;SDS011;31681;48.982;8.394;2023-10-13T09:22:27;11.10;;;3.67;;
45970;SDS011;31681;48.982;8.394;2023-10-13T09:24:58;10.65;;;3.50;;
45970;SDS011;31681;48.982;8.394;2023-10-13T09:27:24;8.40;;;3.72;;
45970;SDS011;31681;48.982;8.394;2023-10-13T09:30:10;7.55;;;3.33;;
45970;SDS011;31681;48.982;8.394;2023-10-13T09:32:46;11.60;;;4.00;;
45970;SDS011;31681;48.982;8.394;2023-10-13T09:35:20;7.88;;;3.17;;
45970;SDS011;31681;48.982;8.394;2023-10-13T09:37:49;12.52;;;3.55;;
45970;SDS011;31681;48.982;8.394;2023-10-13T09:40:15;9.00;;;3.40;;
45970;SDS011;31681;48.982;8.394;2023-10-13T09:42:51;8.50;;;3.17;;
45970;SDS011;31681;48.982;8.394;2023-10-13T09:45:16;9.45;;;3.60;;
45970;SDS011;31681;48.982;8.394;2023-10-13T09:47:43;10.07;;;3.67;;
45970;SDS011;31681;48.982;8.394;2023-10-13T09:50:12;7.63;;;3.10;;
45970;SDS011;31681;48.982;8.394;2023-10-13T09:52:49;6.63;;;3.35;;
45970;SDS011;31681;48.982;8.394;2023-10-13T09:55:23;10.15;;;3.33;;
45970;SDS011;31681;48.982;8.394;2023-10-13T09:57:54;7.03;;;3.50;;
45970;SDS011;31681;48.982;8.394;2023-10-13T10:00:23;7.72;;;3.25;;
45970;SDS011;31681;48.982;8.394;2023-10-13T10:03:09;8.35;;;3.03;;
45970;SDS011;31681;48.982;8.394;2023-10-13T10:05:57;10.40;;;4.18;;
45970;SDS011;31681;48.982;8.394;2023-10-13T10:08:28;9.57;;;3.63;;
45970;SDS011;31681;48.982;8.394;2023-10-13T10:11:16;8.90;;;3.22;;
45970;SDS011;31681;48.982;8.394;2023-10-13T10:14:03;9.82;;;3.40;;
45970;SDS011;31681;48.982;8.394;2023-10-13T10:19:01;10.52;;;3.63;;
45970;SDS011;31681;48.982;8.394;2023-10-13T10:21:35;10.07;;;3.60;;
45970;SDS011;31681;48.982;8.394;2023-10-13T10:24:01;11.55;;;3.10;;
45970;SDS011;31681;48.982;8.394;2023-10-13T10:26:38;11.48;;;3.72;;
45970;SDS011;31681;48.982;8.394;2023-10-13T10:29:10;7.18;;;3.28;;
45970;SDS011;31681;48.982;8.394;2023-10-13T10:31:35;5.88;;;3.28;;
45970;SDS011;31681;48.982;8.394;2023-10-13T10:34:15;5.90;;;3.40;;
45970;SDS011;31681;48.982;8.394;2023-10-13T10:36:47;9.25;;;4.22;;
45970;SDS011;31681;48.982;8.394;2023-10-13T10:39:12;10.82;;;3.60;;
45970;SDS011;31681;48.982;8.394;2023-10-13T10:41:38;7.32;;;3.28;;
45970;SDS011;31681;48.982;8.394;2023-10-13T10:44:19;10.32;;;3.47;;
45970;SDS011;31681;48.982;8.394;2023-10-13T10:46:52;11.05;;;3.58;;
45970;SDS011;31681;48.982;8.394;2023-10-13T10:49:21;10.38;;;3.63;;
45970;SDS011;31681;48.982;8.394;2023-10-13T10:51:53;7.95;;;3.38;;
45970;SDS011;31681;48.982;8.394;2023-10-13T10:54:23;7.90;;;3.60;;
45970;SDS011;31681;48.982;8.394;2023-10-13T10:56:55;9.38;;;3.78;;
45970;SDS011;31681;48.982;8.394;2023-10-13T10:59:21;8.82;;;2.90;;
45970;SDS011;31681;48.982;8.394;2023-10-13T11:01:50;8.30;;;3.20;;
45970;SDS011;31681;48.982;8.394;2023-10-13T11:04:18;8.40;;;3.63;;
45970;SDS011;31681;48.982;8.394;2023-10-13T11:06:47;6.88;;;3.22;;
45970;SDS011;31681;48.982;8.394;2023-10-13T11:09:13;10.18;;;3.17;;
45970;SDS011;31681;48.982;8.394;2023-10-13T11:11:48;6.60;;;2.95;;
45970;SDS011;31681;48.982;8.394;2023-10-13T11:14:24;8.45;;;4.18;;
45970;SDS011;31681;48.982;8.394;2023-10-13T11:16:50;9.75;;;3.45;;
45970;SDS011;31681;48.982;8.394;2023-10-13T11:19:16;6.32;;;3.35;;
45970;SDS011;31681;48.982;8.394;2023-10-13T11:21:42;10.75;;;3.50;;
45970;SDS011;31681;48.982;8.394;2023-10-13T11:24:07;13.55;;;3.80;;
45970;SDS011;31681;48.982;8.394;2023-10-13T11:26:36;8.23;;;3.70;;
45970;SDS011;31681;48.982;8.394;2023-10-13T11:29:17;6.55;;;3.42;;
45970;SDS011;31681;48.982;8.394;2023-10-13T11:31:48;10.68;;;3.47;;
45970;SDS011;31681;48.982;8.394;2023-10-13T11:34:24;7.50;;;3.05;;
45970;SDS011;31681;48.982;8.394;2023-10-13T11:36:50;7.85;;;3.47;;
45970;SDS011;31681;48.982;8.394;2023-10-13T11:39:15;7.88;;;3.30;;
45970;SDS011;31681;48.982;8.394;2023-10-13T11:42:03;9.63;;;3.40;;
45970;SDS011;31681;48.982;8.394;2023-10-13T11:44:35;10.07;;;3.17;;
45970;SDS011;31681;48.982;8.394;2023-10-13T11:47:08;12.57;;;3.72;;
45970;SDS011;31681;48.982;8.394;2023-10-13T11:49:53;8.35;;;3.00;;
45970;SDS011;31681;48.982;8.394;2023-10-13T11:52:23;10.30;;;3.63;;
45970;SDS011;31681;48.982;8.394;2023-10-13T11:54:51;8.23;;;3.40;;
45970;SDS011;31681;48.982;8.394;2023-10-13T11:57:16;7.47;;;3.08;;
45970;SDS011;31681;48.982;8.394;2023-10-13T11:59:44;6.88;;;3.58;;
45970;SDS011;31681;48.982;8.394;2023-10-13T12:02:11;11.57;;;3.90;;
45970;SDS011;31681;48.982;8.394;2023-10-13T12:04:52;8.98;;;3.50;;
45970;SDS011;31681;48.982;8.394;2023-10-13T12:07:19;9.15;;;3.67;;
45970;SDS011;31681;48.982;8.394;2023-10-13T12:09:46;11.68;;;4.18;;
45970;SDS011;31681;48.982;8.394;2023-10-13T12:12:28;9.05;;;3.80;;
45970;SDS011;31681;48.982;8.394;2023-10-13T12:14:55;8.90;;;3.55;;
45970;SDS011;31681;48.982;8.394;2023-10-13T12:17:22;7.22;;;3.60;;
45970;SDS011;31681;48.982;8.394;2023-10-13T12:20:03;7.80;;;3.25;;
45970;SDS011;31681;48.982;8.394;2023-10-13T12:22:38;5.60;;;3.88;;
45970;SDS011;31681;48.982;8.394;2023-10-13T12:25:07;8.15;;;3.72;;
45970;SDS011;31681;48.982;8.394;2023-10-13T12:27:52;10.00;;;3.50;;
45970;SDS011;31681;48.982;8.394;2023-10-13T12:30:22;8.43;;;3.80;;
45970;SDS011;31681;48.982;8.394;2023-10-13T12:33:00;11.48;;;3.83;;
45970;SDS011;31681;48.982;8.394;2023-10-13T12:35:33;8.07;;;3.40;;
45970;SDS011;31681;48.982;8.394;2023-10-13T12:38:35;7.88;;;3.25;;
45970;SDS011;31681;48.982;8.394;2023-10-13T12:41:13;8.57;;;3.42;;
45970;SDS011;31681;48.982;8.394;2023-10-13T12:43:57;9.18;;;3.88;;
45970;SDS011;31681;48.982;8.394;2023-10-13T12:46:41;8.55;;;3.78;;
45970;SDS011;31681;48.982;8.394;2023-10-13T12:49:25;8.82;;;3.78;;
45970;SDS011;31681;48.982;8.394;2023-10-13T12:52:06;7.38;;;3.15;;
45970;SDS011;31681;48.982;8.394;2023-10-13T12:54:41;8.40;;;3.53;;
45970;SDS011;31681;48.982;8.394;2023-10-13T12:57:11;7.10;;;3.30;;
45970;SDS011;31681;48.982;8.394;2023-10-13T12:59:36;6.90;;;3.58;;
45970;SDS011;31681;48.982;8.394;2023-10-13T13:02:04;28.33;;;6.57;;
45970;SDS011;31681;48.982;8.394;2023-10-13T13:04:32;9.73;;;3.30;;
45970;SDS011;31681;48.982;8.394;2023-10-13T13:07:01;8.00;;;3.25;;
45970;SDS011;31681;48.982;8.394;2023-10-13T13:09:28;8.68;;;3.70;;
45970;SDS011;31681;48.982;8.394;2023-10-13T13:11:53;7.97;;;3.30;;
45970;SDS011;31681;48.982;8.394;2023-10-13T13:14:25;10.75;;;3.65;;
45970;SDS011;31681;48.982;8.394;2023-10-13T13:16:57;6.95;;;3.50;;
45970;SDS011;31681;48.982;8.394;2023-10-13T13:19:36;9.27;;;3.65;;
45970;SDS011;31681;48.982;8.394;2023-10-13T13:22:04;8.07;;;3.95;;
45970;SDS011;31681;48.982;8.394;2023-10-13T13:24:29;7.20;;;3.15;;
45970;SDS011;31681;48.982;8.394;2023-10-13T13:26:58;6.60;;;3.47;;
45970;SDS011;31681;48.982;8.394;2023-10-13T13:29:29;5.93;;;3.35;;
45970;SDS011;31681;48.982;8.394;2023-10-13T13:31:54;8.45;;;3.50;;
45970;SDS011;31681;48.982;8.394;2023-10-13T13:34:20;9.82;;;3.75;;
45970;SDS011;31681;48.982;8.394;2023-10-13T13:36:46;8.20;;;3.83;;
45970;SDS011;31681;48.982;8.394;2023-10-13T13:39:17;6.85;;;3.30;;
45970;SDS011;31681;48.982;8.394;2023-10-13T13:41:53;9.20;;;3.22;;
45970;SDS011;31681;48.982;8.394;2023-10-13T13:44:22;6.03;;;3.28;;
45970;SDS011;31681;48.982;8.394;2023-10-13T13:46:54;9.55;;;3.70;;
45970;SDS011;31681;48.982;8.394;2023-10-13T13:49:21;7.90;;;3.30;;
45970;SDS011;31681;48.982;8.394;2023-10-13T13:51:53;7.45;;;3.22;;
45970;SDS011;31681;48.982;8.394;2023-10-13T13:54:19;8.63;;;3.37;;
45970;SDS011;31681;48.982;8.394;2023-10-13T13:56:45;8.15;;;3.70;;
45970;SDS011;31681;48.982;8.394;2023-10-13T13:59:10;6.57;;;3.70;;
45970;SDS011;31681;48.982;8.394;2023-10-13T14:01:40;9.63;;;3.85;;
45970;SDS011;31681;48.982;8.394;2023-10-13T14:04:05;9.55;;;3.20;;
45970;SDS011;31681;48.982;8.394;2023-10-13T14:06:32;7.60;;;3.78;;
45970;SDS011;31681;48.982;8.394;2023-10-13T14:08:59;8.35;;;3.10;;
45970;SDS011;31681;48.982;8.394;2023-10-13T14:11:27;10.57;;;4.03;;
45970;SDS011;31681;48.982;8.394;2023-10-13T14:14:06;11.45;;;3.70;;
45970;SDS011;31681;48.982;8.394;2023-10-13T14:16:50;8.02;;;3.20;;
45970;SDS011;31681;48.982;8.394;2023-10-13T14:19:16;6.10;;;3.72;;
45970;SDS011;31681;48.982;8.394;2023-10-13T14:22:00;5.97;;;2.97;;
45970;SDS011;31681;48.982;8.394;2023-10-13T14:24:31;5.32;;;3.28;;
45970;SDS011;31681;48.982;8.394;2023-10-13T14:27:00;6.97;;;3.78;;
45970;SDS011;31681;48.982;8.394;2023-10-13T14:29:42;5.05;;;2.80;;
45970;SDS011;31681;48.982;8.394;2023-10-13T14:32:09;6.50;;;3.53;;
45970;SDS011;31681;48.982;8.394;2023-10-13T14:34:39;4.82;;;3.20;;
45970;SDS011;31681;48.982;8.394;2023-10-13T14:37:07;4.55;;;3.08;;
45970;SDS011;31681;48.982;8.394;2023-10-13T14:39:33;9.23;;;3.58;;
45970;SDS011;31681;48.982;8.394;2023-10-13T14:42:00;8.63;;;3.38;;
45970;SDS011;31681;48.982;8.394;2023-10-13T14:44:26;6.75;;;3.20;;
45970;SDS011;31681;48.982;8.394;2023-10-13T14:46:52;8.82;;;3.30;;
45970;SDS011;31681;48.982;8.394;2023-10-13T14:49:21;6.28;;;3.33;;
45970;SDS011;31681;48.982;8.394;2023-10-13T14:51:46;10.18;;;3.00;;
45970;SDS011;31681;48.982;8.394;2023-10-13T14:54:11;9.10;;;3.35;;
45970;SDS011;31681;48.982;8.394;2023-10-13T14:56:36;5.00;;;3.30;;
45970;SDS011;31681;48.982;8.394;2023-10-13T14:59:02;6.75;;;2.92;;
45970;SDS011;31681;48.982;8.394;2023-10-13T15:01:29;9.07;;;3.00;;
45970;SDS011;31681;48.982;8.394;2023-10-13T15:03:57;4.90;;;2.72;;
45970;SDS011;31681;48.982;8.394;2023-10-13T15:06:24;9.20;;;3.42;;
45970;SDS011;31681;48.982;8.394;2023-10-13T15:08:56;5.70;;;2.88;;
45970;SDS011;31681;48.982;8.394;2023-10-13T15:11:22;8.35;;;3.67;;
45970;SDS011;31681;48.982;8.394;2023-10-13T15:13:51;7.55;;;2.85;;
45970;SDS011;31681;48.982;8.394;2023-10-13T15:16:18;8.15;;;3.28;;
45970;SDS011;31681;48.982;8.394;2023-10-13T15:18:44;9.85;;;3.90;;
45970;SDS011;31681;48.982;8.394;2023-10-13T15:21:10;6.80;;;2.92;;